createdAt,value
2018-08-22T00:07:26.310Z,3.50
2018-08-22T00:09:54.549Z,3.73
2018-08-22T00:12:22.792Z,3.50
2018-08-22T00:14:51.030Z,3.73
2018-08-22T00:17:19.270Z,3.20
2018-08-22T00:19:47.497Z,3.13
2018-08-22T00:22:15.718Z,3.20
2018-08-22T00:24:44.313Z,3.40
2018-08-22T00:27:12.561Z,2.93
2018-08-22T00:29:40.796Z,3.27
2018-08-22T00:32:09.004Z,3.07
2018-08-22T00:34:37.252Z,3.13
2018-08-22T00:37:05.691Z,2.83
2018-08-22T00:39:33.951Z,3.70
2018-08-22T00:42:02.228Z,3.13
2018-08-22T00:44:30.557Z,3.00
2018-08-22T00:46:58.773Z,3.87
2018-08-22T00:49:26.990Z,3.40
2018-08-22T00:51:55.200Z,3.67
2018-08-22T00:54:23.458Z,3.07
2018-08-22T00:56:51.681Z,3.17
2018-08-22T00:59:19.911Z,3.63
2018-08-22T01:01:48.125Z,3.53
2018-08-22T01:04:16.345Z,3.37
2018-08-22T01:06:44.641Z,3.40
2018-08-22T01:09:12.845Z,3.50
2018-08-22T01:11:41.081Z,4.10
2018-08-22T01:14:09.280Z,3.60
2018-08-22T01:16:37.567Z,3.50
2018-08-22T01:19:05.791Z,3.60
2018-08-22T01:21:34.033Z,3.50
2018-08-22T01:24:02.282Z,3.30
2018-08-22T01:26:30.633Z,3.70
2018-08-22T01:28:58.885Z,4.27
2018-08-22T01:31:27.112Z,3.47
2018-08-22T01:33:55.328Z,3.50
2018-08-22T01:36:23.552Z,3.60
2018-08-22T01:38:51.749Z,3.57
2018-08-22T01:41:19.980Z,3.10
2018-08-22T01:43:48.201Z,3.53
2018-08-22T01:46:16.540Z,3.40
2018-08-22T01:48:44.767Z,3.33
2018-08-22T01:51:13.076Z,4.17
2018-08-22T01:53:41.375Z,3.67
2018-08-22T01:56:09.594Z,3.40
2018-08-22T01:58:37.838Z,3.47
2018-08-22T02:01:06.068Z,3.30
2018-08-22T02:03:34.361Z,3.37
2018-08-22T02:06:02.581Z,3.23
2018-08-22T02:08:30.826Z,3.17
2018-08-22T02:10:59.032Z,3.30
2018-08-22T02:13:27.316Z,3.40
2018-08-22T02:15:55.520Z,3.30
2018-08-22T02:18:23.743Z,2.83
2018-08-22T02:20:51.953Z,3.10
2018-08-22T02:23:20.180Z,3.30
2018-08-22T02:25:48.436Z,2.80
2018-08-22T02:28:16.678Z,3.30
2018-08-22T02:30:44.889Z,3.20
2018-08-22T02:33:13.101Z,3.53
2018-08-22T02:35:41.352Z,2.90
2018-08-22T02:38:09.600Z,3.07
2018-08-22T02:40:37.822Z,3.13
2018-08-22T02:43:06.045Z,3.23
2018-08-22T02:45:34.262Z,3.20
2018-08-22T02:48:02.477Z,3.10
2018-08-22T02:50:30.680Z,2.97
2018-08-22T02:52:58.901Z,3.00
2018-08-22T02:55:27.145Z,3.10
2018-08-22T02:57:55.352Z,2.80
2018-08-22T03:00:23.549Z,2.90
2018-08-22T03:02:51.873Z,3.53
2018-08-22T03:05:20.098Z,3.00
2018-08-22T03:07:48.328Z,2.80
2018-08-22T03:10:16.541Z,2.70
2018-08-22T03:12:44.777Z,3.17
2018-08-22T03:15:13.003Z,3.00
2018-08-22T03:17:41.281Z,2.63
2018-08-22T03:20:16.157Z,2.90
2018-08-22T03:22:44.379Z,3.50
2018-08-22T03:25:12.613Z,3.13
2018-08-22T03:27:40.896Z,3.13
2018-08-22T03:30:09.105Z,3.00
2018-08-22T03:32:37.337Z,3.10
2018-08-22T03:35:05.553Z,2.77
2018-08-22T03:37:33.792Z,3.30
2018-08-22T03:40:02.013Z,2.73
2018-08-22T03:42:30.295Z,3.07
2018-08-22T03:44:58.513Z,3.10
2018-08-22T03:47:26.722Z,3.47
2018-08-22T03:49:54.928Z,3.23
2018-08-22T03:52:23.145Z,3.53
2018-08-22T03:54:51.361Z,3.37
2018-08-22T03:57:19.683Z,2.80
2018-08-22T03:59:47.912Z,3.20
2018-08-22T04:02:16.169Z,3.07
2018-08-22T04:04:44.518Z,2.70
2018-08-22T04:07:12.734Z,3.00
2018-08-22T04:09:40.957Z,2.93
2018-08-22T04:12:09.193Z,3.00
2018-08-22T04:14:37.397Z,3.07
2018-08-22T04:17:05.896Z,2.70
2018-08-22T04:19:34.136Z,2.83
2018-08-22T04:22:02.396Z,2.57
2018-08-22T04:24:30.628Z,3.07
2018-08-22T04:26:58.880Z,3.07
2018-08-22T04:29:27.536Z,2.63
2018-08-22T04:31:55.798Z,3.30
2018-08-22T04:34:24.012Z,2.87
2018-08-22T04:36:52.216Z,2.80
2018-08-22T04:39:20.432Z,2.90
2018-08-22T04:41:48.668Z,3.23
2018-08-22T04:44:16.885Z,2.83
2018-08-22T04:46:45.080Z,3.10
2018-08-22T04:49:13.300Z,3.07
2018-08-22T04:51:41.509Z,2.87
2018-08-22T04:54:09.761Z,2.97
2018-08-22T04:56:38.021Z,2.83
2018-08-22T04:59:06.236Z,3.37
2018-08-22T05:01:34.497Z,3.33
2018-08-22T05:04:02.705Z,3.07
2018-08-22T05:06:30.929Z,3.60
2018-08-22T05:08:59.165Z,3.13
2018-08-22T05:11:27.421Z,3.20
2018-08-22T05:13:55.692Z,3.50
2018-08-22T05:16:23.893Z,3.40
2018-08-22T05:18:52.129Z,2.90
2018-08-22T05:21:20.382Z,2.77
2018-08-22T05:23:48.584Z,3.20
2018-08-22T05:26:16.872Z,3.47
2018-08-22T05:28:45.120Z,3.10
2018-08-22T05:31:13.326Z,3.20
2018-08-22T05:33:41.602Z,3.40
2018-08-22T05:36:09.816Z,3.80
2018-08-22T05:38:38.037Z,3.53
2018-08-22T05:41:06.278Z,3.67
2018-08-22T05:43:34.505Z,5.63
2018-08-22T05:46:02.733Z,3.97
2018-08-22T05:48:30.965Z,3.87
2018-08-22T05:50:59.245Z,4.00
2018-08-22T05:53:27.510Z,4.20
2018-08-22T05:55:55.733Z,4.60
2018-08-22T05:58:23.960Z,4.37
2018-08-22T06:00:52.160Z,3.93
2018-08-22T06:03:20.456Z,4.10
2018-08-22T06:05:48.592Z,3.83
2018-08-22T06:08:16.833Z,3.90
2018-08-22T06:10:45.037Z,4.83
2018-08-22T06:13:13.297Z,3.90
2018-08-22T06:15:41.531Z,4.40
2018-08-22T06:18:10.020Z,3.77
2018-08-22T06:20:38.584Z,4.20
2018-08-22T06:23:07.284Z,4.60
2018-08-22T06:25:35.559Z,4.67
2018-08-22T06:28:03.794Z,4.47
2018-08-22T06:30:32.022Z,4.50
2018-08-22T06:33:00.303Z,4.53
2018-08-22T06:35:28.548Z,4.80
2018-08-22T06:37:57.023Z,4.17
2018-08-22T06:40:25.235Z,4.40
2018-08-22T06:42:53.473Z,5.10
2018-08-22T06:45:21.701Z,5.43
2018-08-22T06:47:49.929Z,5.47
2018-08-22T06:50:18.189Z,5.20
2018-08-22T06:52:46.350Z,5.07
2018-08-22T06:55:14.588Z,5.57
2018-08-22T06:57:42.885Z,5.47
2018-08-22T07:00:11.109Z,5.10
2018-08-22T07:02:39.319Z,4.47
2018-08-22T07:05:07.536Z,4.53
2018-08-22T07:07:35.781Z,4.67
2018-08-22T07:10:04.070Z,4.93
2018-08-22T07:12:32.367Z,5.33
2018-08-22T07:15:00.604Z,6.60
2018-08-22T07:17:28.818Z,5.97
2018-08-22T07:19:57.032Z,5.20
2018-08-22T07:22:25.241Z,4.90
2018-08-22T07:24:53.487Z,5.00
2018-08-22T07:27:21.766Z,4.93
2018-08-22T07:29:50.089Z,4.97
2018-08-22T07:32:18.549Z,5.97
2018-08-22T07:34:47.169Z,5.00
2018-08-22T07:37:15.665Z,4.40
2018-08-22T07:39:43.920Z,5.20
2018-08-22T07:42:12.143Z,4.80
2018-08-22T07:44:40.348Z,5.33
2018-08-22T07:47:08.661Z,4.97
2018-08-22T07:49:36.861Z,5.63
2018-08-22T07:52:05.077Z,4.30
2018-08-22T07:54:50.793Z,5.07
2018-08-22T07:57:21.708Z,5.17
2018-08-22T07:59:50.596Z,6.10
2018-08-22T08:02:18.969Z,5.50
2018-08-22T08:04:47.306Z,5.67
2018-08-22T08:07:15.789Z,5.70
2018-08-22T08:09:44.073Z,6.30
2018-08-22T08:12:12.361Z,6.13
2018-08-22T08:14:40.589Z,6.10
2018-08-22T08:17:08.880Z,5.73
2018-08-22T08:19:37.093Z,5.60
2018-08-22T08:22:05.369Z,5.93
2018-08-22T08:24:33.601Z,5.73
2018-08-22T08:27:01.837Z,5.30
2018-08-22T08:29:30.077Z,5.00
2018-08-22T08:31:58.353Z,5.57
2018-08-22T08:34:26.549Z,5.67
2018-08-22T08:36:54.774Z,4.77
2018-08-22T08:39:22.968Z,5.30
2018-08-22T08:41:51.189Z,4.70
2018-08-22T08:44:19.423Z,5.10
2018-08-22T08:46:47.965Z,4.90
2018-08-22T08:49:16.176Z,4.57
2018-08-22T08:51:56.562Z,4.23
2018-08-22T08:54:24.809Z,4.80
2018-08-22T08:56:53.161Z,4.90
2018-08-22T08:59:21.445Z,4.67
2018-08-22T09:01:49.744Z,5.10
2018-08-22T09:04:17.980Z,4.40
2018-08-22T09:06:46.385Z,4.27
2018-08-22T09:09:14.597Z,5.00
2018-08-22T09:11:57.922Z,4.50
2018-08-22T09:14:26.610Z,4.40
2018-08-22T09:16:55.215Z,4.47
2018-08-22T09:19:23.472Z,4.80
2018-08-22T09:21:51.697Z,5.30
2018-08-22T09:24:19.928Z,4.17
2018-08-22T09:26:48.193Z,5.10
2018-08-22T09:29:16.431Z,5.00
2018-08-22T09:31:44.646Z,6.33
2018-08-22T09:34:12.906Z,5.73
2018-08-22T09:36:41.118Z,5.80
2018-08-22T09:39:11.564Z,5.83
2018-08-22T09:41:39.784Z,5.63
2018-08-22T09:44:08.362Z,6.23
2018-08-22T09:46:37.145Z,5.93
2018-08-22T09:49:05.385Z,7.10
2018-08-22T09:51:33.625Z,6.20
2018-08-22T09:54:01.849Z,5.60
2018-08-22T09:56:30.093Z,6.07
2018-08-22T09:58:58.316Z,5.83
2018-08-22T10:01:31.911Z,7.50
2018-08-22T10:04:01.089Z,6.90
2018-08-22T10:06:48.627Z,6.93
2018-08-22T10:09:20.585Z,6.97
2018-08-22T10:11:48.797Z,7.50
2018-08-22T10:14:17.068Z,7.40
2018-08-22T10:16:45.335Z,8.10
2018-08-22T10:19:13.550Z,7.10
2018-08-22T10:21:41.857Z,7.33
2018-08-22T10:24:10.070Z,7.40
2018-08-22T10:26:38.846Z,6.83
2018-08-22T10:29:07.085Z,7.30
2018-08-22T10:31:35.325Z,6.80
2018-08-22T10:34:03.569Z,6.20
2018-08-22T10:36:31.784Z,7.10
2018-08-22T10:39:00.013Z,6.87
2018-08-22T10:41:28.221Z,6.50
2018-08-22T10:43:56.535Z,7.03
2018-08-22T10:46:31.285Z,7.57
2018-08-22T10:48:59.493Z,7.43
2018-08-22T10:51:27.700Z,7.53
2018-08-22T10:53:55.956Z,7.63
2018-08-22T10:56:24.349Z,6.87
2018-08-22T10:58:52.556Z,7.07
2018-08-22T11:01:20.797Z,7.60
2018-08-22T11:03:49.009Z,8.50
2018-08-22T11:06:17.229Z,6.63
2018-08-22T11:08:45.441Z,7.43
2018-08-22T11:11:13.673Z,7.67
2018-08-22T11:13:41.868Z,7.83
2018-08-22T11:16:10.272Z,7.50
2018-08-22T11:18:38.412Z,8.17
2018-08-22T11:21:17.865Z,9.30
2018-08-22T11:23:57.379Z,8.80
2018-08-22T11:26:36.820Z,7.93
2018-08-22T11:29:16.329Z,8.23
2018-08-22T11:31:55.940Z,8.10
2018-08-22T11:34:35.476Z,8.47
2018-08-22T11:37:06.636Z,9.87
2018-08-22T11:39:34.930Z,12.50
2018-08-22T11:42:03.804Z,9.43
2018-08-22T11:44:32.005Z,8.87
2018-08-22T11:47:00.788Z,9.63
2018-08-22T11:49:29.596Z,12.00
2018-08-22T11:51:58.188Z,10.73
2018-08-22T11:54:26.671Z,10.70
2018-08-22T11:56:54.897Z,9.53
2018-08-22T11:59:23.124Z,10.00
2018-08-22T12:01:51.669Z,10.80
2018-08-22T12:04:20.339Z,12.83
2018-08-22T12:06:48.601Z,9.97
2018-08-22T12:09:16.891Z,9.80
2018-08-22T12:11:45.122Z,9.67
2018-08-22T12:14:13.349Z,8.37
2018-08-22T12:16:41.997Z,7.63
2018-08-22T12:19:10.687Z,7.33
2018-08-22T12:21:39.589Z,6.90
2018-08-22T12:24:07.857Z,7.33
2018-08-22T12:26:36.224Z,9.50
2018-08-22T12:29:04.560Z,8.10
2018-08-22T12:31:32.917Z,6.17
2018-08-22T12:34:01.141Z,6.77
2018-08-22T12:36:29.392Z,7.20
2018-08-22T12:38:57.652Z,7.17
2018-08-22T12:41:26.408Z,6.27
2018-08-22T12:43:54.929Z,5.97
2018-08-22T12:46:23.421Z,7.10
2018-08-22T12:48:51.642Z,8.77
2018-08-22T12:51:20.065Z,7.73
2018-08-22T12:53:48.286Z,9.60
2018-08-22T12:56:16.549Z,10.60
2018-08-22T12:58:44.831Z,8.23
2018-08-22T13:01:13.041Z,9.33
2018-08-22T13:03:41.333Z,9.13
2018-08-22T13:06:09.633Z,10.00
2018-08-22T13:08:37.929Z,8.40
2018-08-22T13:11:06.206Z,8.13
2018-08-22T13:13:34.368Z,6.80
2018-08-22T13:16:02.761Z,8.03
2018-08-22T13:18:31.024Z,7.07
2018-08-22T13:20:59.245Z,8.20
2018-08-22T13:23:27.452Z,6.93
2018-08-22T13:25:55.661Z,7.20
2018-08-22T13:28:23.893Z,7.80
2018-08-22T13:30:52.104Z,6.60
2018-08-22T13:33:20.314Z,5.97
2018-08-22T13:35:48.533Z,6.37
2018-08-22T13:38:16.788Z,6.20
2018-08-22T13:40:44.993Z,6.50
2018-08-22T13:43:13.205Z,6.43
2018-08-22T13:45:41.476Z,6.37
2018-08-22T13:48:09.689Z,7.87
2018-08-22T13:50:37.941Z,6.03
2018-08-22T13:53:06.156Z,6.13
2018-08-22T13:55:34.685Z,6.33
2018-08-22T13:58:02.904Z,6.87
2018-08-22T14:00:31.125Z,4.60
2018-08-22T14:02:59.313Z,5.17
2018-08-22T14:05:27.509Z,5.80
2018-08-22T14:07:55.824Z,6.43
2018-08-22T14:10:24.033Z,5.63
2018-08-22T14:12:52.244Z,5.87
2018-08-22T14:15:20.441Z,6.08
2018-08-22T14:17:48.653Z,5.60
2018-08-22T14:20:16.873Z,6.50
2018-08-22T14:22:45.116Z,6.53
2018-08-22T14:25:13.350Z,8.13
2018-08-22T14:27:41.612Z,7.13
2018-08-22T14:30:09.820Z,7.23
2018-08-22T14:32:38.053Z,6.63
2018-08-22T14:35:06.361Z,6.40
2018-08-22T14:37:34.584Z,7.63
2018-08-22T14:40:02.869Z,5.30
2018-08-22T14:42:31.197Z,6.07
2018-08-22T14:44:59.494Z,6.43
2018-08-22T14:47:27.734Z,7.27
2018-08-22T14:49:56.021Z,7.73
2018-08-22T14:52:24.260Z,6.23
2018-08-22T14:54:52.573Z,5.53
2018-08-22T14:57:20.808Z,5.60
2018-08-22T14:59:49.029Z,4.77
2018-08-22T15:02:17.351Z,5.10
2018-08-22T15:04:45.497Z,5.53
2018-08-22T15:07:13.749Z,6.30
2018-08-22T15:09:41.974Z,5.43
2018-08-22T15:12:10.281Z,6.07
2018-08-22T15:14:38.627Z,6.40
2018-08-22T15:17:06.849Z,6.90
2018-08-22T15:19:35.130Z,7.43
2018-08-22T15:22:03.348Z,6.40
2018-08-22T15:24:31.755Z,6.80
2018-08-22T15:26:59.963Z,7.10
2018-08-22T15:29:28.212Z,5.90
2018-08-22T15:31:56.412Z,7.20
2018-08-22T15:34:31.540Z,6.63
2018-08-22T15:36:59.796Z,6.60
2018-08-22T15:39:28.041Z,6.73
2018-08-22T15:41:56.467Z,6.20
2018-08-22T15:44:24.639Z,8.27
2018-08-22T15:46:53.028Z,7.30
2018-08-22T15:49:21.268Z,8.10
2018-08-22T15:51:49.480Z,6.97
2018-08-22T15:54:17.710Z,7.23
2018-08-22T15:56:45.945Z,6.77
2018-08-22T15:59:14.253Z,8.13
2018-08-22T16:01:42.522Z,7.90
2018-08-22T16:04:11.013Z,8.20
2018-08-22T16:06:39.224Z,7.83
2018-08-22T16:09:10.703Z,7.10
2018-08-22T16:11:38.930Z,8.20
2018-08-22T16:14:07.221Z,6.80
2018-08-22T16:16:35.428Z,8.00
2018-08-22T16:19:04.116Z,8.57
2018-08-22T16:21:32.465Z,7.47
2018-08-22T16:24:00.743Z,7.53
2018-08-22T16:26:29.005Z,7.70
2018-08-22T16:28:58.806Z,7.17
2018-08-22T16:31:32.525Z,7.72
2018-08-22T16:34:00.756Z,8.05
2018-08-22T16:36:29.498Z,7.67
2018-08-22T16:38:58.061Z,9.00
2018-08-22T16:41:26.265Z,8.38
2018-08-22T16:43:54.513Z,6.83
2018-08-22T16:46:22.740Z,7.43
2018-08-22T16:48:52.708Z,6.43
2018-08-22T16:51:21.415Z,8.37
2018-08-22T16:54:22.637Z,8.17
2018-08-22T16:56:50.865Z,7.70
2018-08-22T16:59:20.748Z,7.50
2018-08-22T17:01:52.797Z,7.70
2018-08-22T17:04:20.985Z,7.97
2018-08-22T17:06:49.225Z,7.83
2018-08-22T17:09:17.456Z,7.77
2018-08-22T17:11:45.688Z,8.70
2018-08-22T17:14:14.081Z,7.60
2018-08-22T17:16:42.305Z,7.20
2018-08-22T17:19:10.581Z,8.17
2018-08-22T17:21:38.872Z,9.50
2018-08-22T17:24:07.093Z,8.57
2018-08-22T17:26:35.331Z,9.10
2018-08-22T17:29:03.555Z,8.80
2018-08-22T17:31:31.805Z,10.13
2018-08-22T17:34:02.329Z,9.87
2018-08-22T17:36:30.658Z,9.40
2018-08-22T17:39:00.049Z,10.30
2018-08-22T17:41:29.485Z,8.97
2018-08-22T17:44:09.265Z,8.10
2018-08-22T17:46:41.786Z,8.50
2018-08-22T17:49:09.995Z,8.70
2018-08-22T17:52:05.114Z,8.87
2018-08-22T17:54:33.731Z,9.17
2018-08-22T17:57:14.188Z,9.13
2018-08-22T17:59:43.400Z,10.73
2018-08-22T18:02:11.989Z,9.63
2018-08-22T18:05:12.289Z,11.27
2018-08-22T18:07:40.674Z,8.87
2018-08-22T18:10:08.933Z,10.50
2018-08-22T18:12:37.180Z,9.77
2018-08-22T18:15:05.489Z,8.43
2018-08-22T18:17:33.763Z,8.70
2018-08-22T18:20:01.973Z,9.50
2018-08-22T18:22:32.309Z,9.27
2018-08-22T18:25:00.528Z,8.90
2018-08-22T18:27:28.849Z,9.83
2018-08-22T18:29:57.023Z,9.50
2018-08-22T18:32:25.237Z,8.93
2018-08-22T18:35:01.909Z,8.43
2018-08-22T18:39:38.093Z,9.03
2018-08-22T18:42:06.342Z,8.27
2018-08-22T18:44:34.608Z,8.73
2018-08-22T18:47:03.101Z,11.30
2018-08-22T18:49:31.324Z,9.57
2018-08-22T18:51:59.554Z,9.60
2018-08-22T18:57:34.454Z,9.50
2018-08-22T19:00:04.353Z,9.10
2018-08-22T19:02:32.999Z,9.30
2018-08-22T19:05:27.231Z,8.93
2018-08-22T19:08:06.104Z,9.20
2018-08-22T19:10:35.524Z,9.10
2018-08-22T19:13:09.021Z,9.13
2018-08-22T19:15:37.894Z,9.20
2018-08-22T19:18:07.921Z,8.80
2018-08-22T19:20:42.632Z,9.37
2018-08-22T19:23:10.828Z,8.73
2018-08-22T19:25:39.161Z,8.77
2018-08-22T19:28:07.349Z,8.37
2018-08-22T19:30:37.309Z,8.30
2018-08-22T19:33:09.544Z,9.00
2018-08-22T19:35:37.792Z,9.40
2018-08-22T19:38:06.873Z,8.97
2018-08-22T19:40:35.680Z,8.93
2018-08-22T19:43:03.959Z,8.77
2018-08-22T19:45:32.897Z,9.67
2018-08-22T19:48:01.121Z,9.53
2018-08-22T19:50:30.217Z,9.20
2018-08-22T19:52:58.465Z,8.73
2018-08-22T19:55:26.698Z,8.87
2018-08-22T19:57:54.924Z,7.97
2018-08-22T20:00:23.135Z,8.90
2018-08-22T20:02:51.453Z,8.80
2018-08-22T20:05:19.686Z,8.40
2018-08-22T20:07:47.889Z,9.17
2018-08-22T20:10:20.286Z,9.60
2018-08-22T20:12:51.517Z,8.93
2018-08-22T20:15:19.825Z,9.47
2018-08-22T20:17:49.736Z,9.37
2018-08-22T20:20:18.537Z,8.60
2018-08-22T20:22:48.740Z,9.47
2018-08-22T20:25:16.945Z,9.87
2018-08-22T20:27:45.177Z,9.47
2018-08-22T20:30:15.651Z,9.33
2018-08-22T20:32:53.326Z,9.27
2018-08-22T20:35:26.905Z,9.70
2018-08-22T20:37:55.369Z,10.07
2018-08-22T20:40:23.581Z,9.13
2018-08-22T20:42:51.870Z,9.30
2018-08-22T20:45:29.261Z,9.53
2018-08-22T20:48:03.025Z,9.87
2018-08-22T20:50:31.293Z,8.83
2018-08-22T20:53:04.809Z,10.63
2018-08-22T20:55:33.325Z,10.87
2018-08-22T20:58:02.198Z,11.60
2018-08-22T21:00:30.502Z,11.90
2018-08-22T21:02:59.537Z,10.73
2018-08-22T21:05:27.881Z,11.27
2018-08-22T21:07:56.100Z,11.73
2018-08-22T21:10:24.365Z,11.67
2018-08-22T21:12:52.940Z,12.20
2018-08-22T21:15:21.242Z,11.70
2018-08-22T21:17:49.482Z,10.77
2018-08-22T21:20:23.774Z,11.20
2018-08-22T21:22:52.769Z,11.47
2018-08-22T21:25:20.973Z,12.40
2018-08-22T21:27:49.753Z,11.57
2018-08-22T21:30:18.210Z,12.00
2018-08-22T21:32:47.377Z,12.80
2018-08-22T21:35:25.671Z,12.47
2018-08-22T21:37:57.990Z,13.77
2018-08-22T21:40:26.214Z,13.97
2018-08-22T21:42:54.445Z,13.97
2018-08-22T21:45:22.657Z,14.53
2018-08-22T21:48:02.824Z,15.00
2018-08-22T21:50:31.049Z,14.27
2018-08-22T21:53:02.540Z,15.20
2018-08-22T21:55:36.016Z,15.30
2018-08-22T21:58:04.748Z,15.93
2018-08-22T22:00:33.025Z,16.43
2018-08-22T22:03:01.269Z,16.63
2018-08-22T22:05:40.861Z,17.57
2018-08-22T22:08:09.388Z,16.37
2018-08-22T22:10:37.665Z,17.23
2018-08-22T22:13:05.902Z,18.33
2018-08-22T22:15:39.449Z,18.87
2018-08-22T22:18:08.152Z,16.90
2018-08-22T22:20:36.405Z,17.80
2018-08-22T22:23:04.693Z,19.70
2018-08-22T22:25:32.897Z,19.60
2018-08-22T22:28:01.141Z,18.20
2018-08-22T22:30:29.371Z,17.53
2018-08-22T22:32:59.645Z,17.63
2018-08-22T22:35:33.114Z,18.90
2018-08-22T22:38:08.028Z,19.27
2018-08-22T22:40:36.513Z,16.57
2018-08-22T22:43:06.765Z,17.80
2018-08-22T22:45:35.198Z,17.97
2018-08-22T22:48:03.408Z,18.10
2018-08-22T22:50:31.652Z,18.60
2018-08-22T22:52:59.937Z,19.53
2018-08-22T22:55:28.705Z,18.43
2018-08-22T22:57:56.953Z,18.70
2018-08-22T23:00:25.197Z,20.57
2018-08-22T23:02:58.840Z,19.67
2018-08-22T23:05:31.249Z,18.77
2018-08-22T23:08:01.266Z,18.80
2018-08-22T23:10:29.506Z,19.43
2018-08-22T23:12:57.731Z,18.27
2018-08-22T23:15:28.089Z,21.93
2018-08-22T23:17:57.597Z,22.00
2018-08-22T23:20:29.477Z,20.37
2018-08-22T23:22:57.777Z,20.10
2018-08-22T23:25:26.400Z,20.17
2018-08-22T23:27:54.671Z,17.50
2018-08-22T23:30:32.609Z,20.10
2018-08-22T23:33:00.852Z,20.07
2018-08-22T23:35:30.260Z,21.57
2018-08-22T23:37:59.597Z,19.97
2018-08-22T23:40:28.904Z,20.33
2018-08-22T23:42:57.182Z,19.80
2018-08-22T23:45:25.396Z,22.10
2018-08-22T23:47:53.642Z,22.83
2018-08-22T23:50:22.002Z,21.33
2018-08-22T23:52:52.600Z,20.77
2018-08-22T23:55:21.897Z,19.70
2018-08-22T23:57:50.497Z,22.77
